sensor_id;sensor_type;location;lat;lon;timestamp;pressure;altitude;pressure_sealevel;temperature;humidity
61324;BME280;47203;48.428;11.974;2023-04-19T00:00:10;97263.72;;;13.41;55.09
61324;BME280;47203;48.428;11.974;2023-04-19T00:02:15;97269.00;;;13.41;55.04
61324;BME280;47203;48.428;11.974;2023-04-19T00:04:24;97260.28;;;13.41;54.85
61324;BME280;47203;48.428;11.974;2023-04-19T00:06:29;97254.22;;;13.40;54.98
61324;BME280;47203;48.428;11.974;2023-04-19T00:08:35;97257.66;;;13.41;55.15
61324;BME280;47203;48.428;11.974;2023-04-19T00:10:40;97252.34;;;13.41;55.28
61324;BME280;47203;48.428;11.974;2023-04-19T00:12:44;97257.66;;;13.41;55.04
61324;BME280;47203;48.428;11.974;2023-04-19T00:14:49;97259.25;;;13.42;55.17
61324;BME280;47203;48.428;11.974;2023-04-19T00:16:54;97253.13;;;13.41;55.30
61324;BME280;47203;48.428;11.974;2023-04-19T00:18:59;97256.59;;;13.42;55.31
61324;BME280;47203;48.428;11.974;2023-04-19T00:21:07;97249.44;;;13.42;55.00
61324;BME280;47203;48.428;11.974;2023-04-19T00:23:12;97244.16;;;13.42;55.02
61324;BME280;47203;48.428;11.974;2023-04-19T00:25:17;97247.56;;;13.43;55.14
61324;BME280;47203;48.428;11.974;2023-04-19T00:27:22;97244.16;;;13.42;54.95
61324;BME280;47203;48.428;11.974;2023-04-19T00:29:27;97248.66;;;13.42;55.17
61324;BME280;47203;48.428;11.974;2023-04-19T00:31:32;97246.00;;;13.42;55.25
61324;BME280;47203;48.428;11.974;2023-04-19T00:33:38;97240.72;;;13.42;55.37
61324;BME280;47203;48.428;11.974;2023-04-19T00:35:42;97238.88;;;13.42;55.03
61324;BME280;47203;48.428;11.974;2023-04-19T00:37:50;97241.78;;;13.41;55.18
61324;BME280;47203;48.428;11.974;2023-04-19T00:39:55;97236.50;;;13.41;55.22
61324;BME280;47203;48.428;11.974;2023-04-19T00:42:00;97225.38;;;13.39;55.34
61324;BME280;47203;48.428;11.974;2023-04-19T00:44:05;97232.25;;;13.40;55.29
61324;BME280;47203;48.428;11.974;2023-04-19T00:46:10;97226.97;;;13.40;55.52
61324;BME280;47203;48.428;11.974;2023-04-19T00:48:15;97232.25;;;13.40;55.27
61324;BME280;47203;48.428;11.974;2023-04-19T00:50:20;97225.38;;;13.39;55.12
61324;BME280;47203;48.428;11.974;2023-04-19T00:52:26;97222.72;;;13.39;55.16
61324;BME280;47203;48.428;11.974;2023-04-19T00:54:34;97216.66;;;13.38;55.41
61324;BME280;47203;48.428;11.974;2023-04-19T00:56:42;97223.81;;;13.38;55.42
61324;BME280;47203;48.428;11.974;2023-04-19T00:58:48;97222.72;;;13.39;55.32
61324;BME280;47203;48.428;11.974;2023-04-19T01:00:52;97216.66;;;13.38;55.45
61324;BME280;47203;48.428;11.974;2023-04-19T01:02:57;97216.66;;;13.38;55.48
61324;BME280;47203;48.428;11.974;2023-04-19T01:05:03;97219.59;;;13.37;55.18
61324;BME280;47203;48.428;11.974;2023-04-19T01:07:08;97212.44;;;13.37;55.48
61324;BME280;47203;48.428;11.974;2023-04-19T01:09:16;97209.00;;;13.37;55.40
61324;BME280;47203;48.428;11.974;2023-04-19T01:11:24;97206.34;;;13.37;55.56
61324;BME280;47203;48.428;11.974;2023-04-19T01:13:29;97205.56;;;13.36;55.60
61324;BME280;47203;48.428;11.974;2023-04-19T01:15:34;97201.84;;;13.37;55.49
61324;BME280;47203;48.428;11.974;2023-04-19T01:17:40;97207.41;;;13.36;55.34
61324;BME280;47203;48.428;11.974;2023-04-19T01:19:45;97203.97;;;13.35;55.38
61324;BME280;47203;48.428;11.974;2023-04-19T01:21:50;97204.78;;;13.36;55.36
61324;BME280;47203;48.428;11.974;2023-04-19T01:23:59;97201.34;;;13.35;55.41
61324;BME280;47203;48.428;11.974;2023-04-19T01:26:05;97197.09;;;13.34;55.74
61324;BME280;47203;48.428;11.974;2023-04-19T01:28:10;97194.19;;;13.36;55.43
61324;BME280;47203;48.428;11.974;2023-04-19T01:30:15;97184.69;;;13.35;55.62
61324;BME280;47203;48.428;11.974;2023-04-19T01:32:21;97186.53;;;13.34;55.66
61324;BME280;47203;48.428;11.974;2023-04-19T01:34:29;97187.59;;;13.33;55.89
61324;BME280;47203;48.428;11.974;2023-04-19T01:36:34;97183.06;;;13.34;55.65
61324;BME280;47203;48.428;11.974;2023-04-19T01:38:39;97177.00;;;13.33;55.46
61324;BME280;47203;48.428;11.974;2023-04-19T01:40:47;97181.75;;;13.31;55.71
61324;BME280;47203;48.428;11.974;2023-04-19T01:42:52;97179.13;;;13.31;55.59
61324;BME280;47203;48.428;11.974;2023-04-19T01:44:59;97176.47;;;13.31;55.86
61324;BME280;47203;48.428;11.974;2023-04-19T01:47:04;97169.59;;;13.30;55.74
61324;BME280;47203;48.428;11.974;2023-04-19T01:49:09;97171.19;;;13.31;55.89
61324;BME280;47203;48.428;11.974;2023-04-19T01:51:16;97166.16;;;13.30;55.75
61324;BME280;47203;48.428;11.974;2023-04-19T01:53:22;97168.03;;;13.29;55.47
61324;BME280;47203;48.428;11.974;2023-04-19T01:55:28;97165.13;;;13.31;55.73
61324;BME280;47203;48.428;11.974;2023-04-19T01:57:35;97170.41;;;13.31;55.63
61324;BME280;47203;48.428;11.974;2023-04-19T01:59:41;97168.53;;;13.31;55.75
61324;BME280;47203;48.428;11.974;2023-04-19T02:01:46;97165.91;;;13.31;55.74
61324;BME280;47203;48.428;11.974;2023-04-19T02:03:51;97161.41;;;13.32;55.88
61324;BME280;47203;48.428;11.974;2023-04-19T02:05:56;97163.25;;;13.31;55.55
61324;BME280;47203;48.428;11.974;2023-04-19T02:08:01;97157.97;;;13.31;55.75
61324;BME280;47203;48.428;11.974;2023-04-19T02:10:08;97153.72;;;13.30;55.47
61324;BME280;47203;48.428;11.974;2023-04-19T02:12:15;97158.25;;;13.30;55.67
61324;BME280;47203;48.428;11.974;2023-04-19T02:14:22;97160.59;;;13.31;55.65
61324;BME280;47203;48.428;11.974;2023-04-19T02:16:27;97156.13;;;13.32;55.82
61324;BME280;47203;48.428;11.974;2023-04-19T02:18:36;97147.38;;;13.31;55.46
61324;BME280;47203;48.428;11.974;2023-04-19T02:20:41;97152.69;;;13.31;55.61
61324;BME280;47203;48.428;11.974;2023-04-19T02:22:46;97137.63;;;13.32;55.55
61324;BME280;47203;48.428;11.974;2023-04-19T02:24:51;97147.38;;;13.31;55.74
61324;BME280;47203;48.428;11.974;2023-04-19T02:27:03;97145.81;;;13.30;55.76
61324;BME280;47203;48.428;11.974;2023-04-19T02:29:08;97136.31;;;13.29;55.81
61324;BME280;47203;48.428;11.974;2023-04-19T02:31:15;97142.38;;;13.30;55.68
61324;BME280;47203;48.428;11.974;2023-04-19T02:33:21;97138.13;;;13.28;55.72
61324;BME280;47203;48.428;11.974;2023-04-19T02:35:26;97132.84;;;13.28;55.85
61324;BME280;47203;48.428;11.974;2023-04-19T02:37:32;97128.66;;;13.27;55.48
61324;BME280;47203;48.428;11.974;2023-04-19T02:39:36;97136.59;;;13.27;55.78
61324;BME280;47203;48.428;11.974;2023-04-19T02:41:43;97131.28;;;13.27;55.69
61324;BME280;47203;48.428;11.974;2023-04-19T02:43:48;97128.94;;;13.26;55.67
61324;BME280;47203;48.428;11.974;2023-04-19T02:45:53;97129.69;;;13.26;55.48
61324;BME280;47203;48.428;11.974;2023-04-19T02:48:00;97124.69;;;13.25;56.00
61324;BME280;47203;48.428;11.974;2023-04-19T02:50:06;97120.47;;;13.24;55.78
61324;BME280;47203;48.428;11.974;2023-04-19T02:52:18;97129.47;;;13.23;55.48
61324;BME280;47203;48.428;11.974;2023-04-19T02:54:23;97127.59;;;13.23;55.60
61324;BME280;47203;48.428;11.974;2023-04-19T02:56:28;97130.25;;;13.23;55.61
61324;BME280;47203;48.428;11.974;2023-04-19T02:58:33;97126.00;;;13.22;55.91
61324;BME280;47203;48.428;11.974;2023-04-19T03:00:40;97126.81;;;13.23;55.77
61324;BME280;47203;48.428;11.974;2023-04-19T03:02:49;97126.81;;;13.23;55.81
61324;BME280;47203;48.428;11.974;2023-04-19T03:04:57;97130.53;;;13.22;55.84
61324;BME280;47203;48.428;11.974;2023-04-19T03:07:02;97123.38;;;13.22;55.57
61324;BME280;47203;48.428;11.974;2023-04-19T03:09:07;97126.00;;;13.22;55.75
61324;BME280;47203;48.428;11.974;2023-04-19T03:11:14;97128.66;;;13.22;55.76
61324;BME280;47203;48.428;11.974;2023-04-19T03:13:20;97119.94;;;13.22;55.69
61324;BME280;47203;48.428;11.974;2023-04-19T03:15:25;97115.72;;;13.21;55.61
61324;BME280;47203;48.428;11.974;2023-04-19T03:17:31;97119.94;;;13.22;55.44
61324;BME280;47203;48.428;11.974;2023-04-19T03:19:37;97115.72;;;13.21;55.88
61324;BME280;47203;48.428;11.974;2023-04-19T03:21:45;97114.94;;;13.20;55.77
61324;BME280;47203;48.428;11.974;2023-04-19T03:23:51;97104.38;;;13.20;55.71
61324;BME280;47203;48.428;11.974;2023-04-19T03:25:58;97102.00;;;13.19;55.42
61324;BME280;47203;48.428;11.974;2023-04-19T03:28:14;97100.41;;;13.18;55.59
61324;BME280;47203;48.428;11.974;2023-04-19T03:30:45;97100.69;;;13.16;55.36
61324;BME280;47203;48.428;11.974;2023-04-19T03:32:50;97090.88;;;13.17;55.55
61324;BME280;47203;48.428;11.974;2023-04-19T03:34:56;97093.53;;;13.17;55.65
61324;BME280;47203;48.428;11.974;2023-04-19T03:37:03;97095.38;;;13.16;55.56
61324;BME280;47203;48.428;11.974;2023-04-19T03:39:08;97095.13;;;13.18;55.41
61324;BME280;47203;48.428;11.974;2023-04-19T03:41:18;97091.97;;;13.16;55.57
61324;BME280;47203;48.428;11.974;2023-04-19T03:43:30;97095.38;;;13.16;55.41
61324;BME280;47203;48.428;11.974;2023-04-19T03:45:35;97096.16;;;13.17;55.31
61324;BME280;47203;48.428;11.974;2023-04-19T03:47:40;97100.41;;;13.18;55.23
61324;BME280;47203;48.428;11.974;2023-04-19T03:49:45;97089.03;;;13.17;55.21
61324;BME280;47203;48.428;11.974;2023-04-19T03:51:51;97095.38;;;13.16;55.19
61324;BME280;47203;48.428;11.974;2023-04-19T03:53:59;97089.31;;;13.16;55.44
61324;BME280;47203;48.428;11.974;2023-04-19T03:56:04;97087.47;;;13.16;55.01
61324;BME280;47203;48.428;11.974;2023-04-19T03:58:11;97093.03;;;13.15;55.38
61324;BME280;47203;48.428;11.974;2023-04-19T04:00:27;97090.66;;;13.13;55.04
61324;BME280;47203;48.428;11.974;2023-04-19T04:02:37;97089.31;;;13.10;55.42
61324;BME280;47203;48.428;11.974;2023-04-19T04:04:45;97100.69;;;13.11;55.23
61324;BME280;47203;48.428;11.974;2023-04-19T04:06:51;97089.06;;;13.12;55.19
61324;BME280;47203;48.428;11.974;2023-04-19T04:08:59;97087.47;;;13.11;55.04
61324;BME280;47203;48.428;11.974;2023-04-19T04:11:05;97091.97;;;13.10;55.09
61324;BME280;47203;48.428;11.974;2023-04-19T04:13:10;97089.59;;;13.09;54.99
61324;BME280;47203;48.428;11.974;2023-04-19T04:15:24;97095.66;;;13.09;55.06
61324;BME280;47203;48.428;11.974;2023-04-19T04:17:30;97088.81;;;13.08;55.25
61324;BME280;47203;48.428;11.974;2023-04-19T04:19:36;97093.56;;;13.06;55.12
61324;BME280;47203;48.428;11.974;2023-04-19T04:21:40;97089.09;;;13.07;54.99
61324;BME280;47203;48.428;11.974;2023-04-19T04:23:46;97098.84;;;13.06;54.96
61324;BME280;47203;48.428;11.974;2023-04-19T04:26:11;97090.41;;;13.04;55.15
61324;BME280;47203;48.428;11.974;2023-04-19T04:28:27;97089.59;;;13.04;55.16
61324;BME280;47203;48.428;11.974;2023-04-19T04:30:32;97092.25;;;13.04;55.25
61324;BME280;47203;48.428;11.974;2023-04-19T04:32:39;97090.41;;;13.04;55.09
61324;BME280;47203;48.428;11.974;2023-04-19T04:34:44;97093.34;;;13.03;54.80
61324;BME280;47203;48.428;11.974;2023-04-19T04:36:58;97089.09;;;13.02;55.20
61324;BME280;47203;48.428;11.974;2023-04-19T04:39:04;97091.75;;;13.02;55.30
61324;BME280;47203;48.428;11.974;2023-04-19T04:41:15;97098.88;;;13.01;54.82
61324;BME280;47203;48.428;11.974;2023-04-19T04:43:24;97092.78;;;13.01;55.00
61324;BME280;47203;48.428;11.974;2023-04-19T04:45:30;97096.25;;;13.01;54.85
61324;BME280;47203;48.428;11.974;2023-04-19T04:47:37;97089.38;;;13.00;54.92
61324;BME280;47203;48.428;11.974;2023-04-19T04:49:44;97089.66;;;12.99;55.02
61324;BME280;47203;48.428;11.974;2023-04-19T04:51:49;97094.16;;;12.98;54.94
61324;BME280;47203;48.428;11.974;2023-04-19T04:53:55;97095.72;;;12.99;55.18
61324;BME280;47203;48.428;11.974;2023-04-19T04:56:02;97093.34;;;12.98;54.85
61324;BME280;47203;48.428;11.974;2023-04-19T04:58:11;97097.06;;;12.97;54.71
61324;BME280;47203;48.428;11.974;2023-04-19T05:00:29;97094.66;;;12.95;55.15
61324;BME280;47203;48.428;11.974;2023-04-19T05:02:37;97094.66;;;12.95;55.02
61324;BME280;47203;48.428;11.974;2023-04-19T05:04:42;97101.81;;;12.95;55.19
61324;BME280;47203;48.428;11.974;2023-04-19T05:06:47;97090.47;;;12.94;55.12
61324;BME280;47203;48.428;11.974;2023-04-19T05:08:57;97095.75;;;12.94;55.11
61324;BME280;47203;48.428;11.974;2023-04-19T05:11:08;97098.13;;;12.96;55.08
61324;BME280;47203;48.428;11.974;2023-04-19T05:13:15;97094.94;;;12.93;55.15
61324;BME280;47203;48.428;11.974;2023-04-19T05:15:21;97093.88;;;12.95;55.17
61324;BME280;47203;48.428;11.974;2023-04-19T05:17:28;97099.94;;;12.95;54.85
61324;BME280;47203;48.428;11.974;2023-04-19T05:19:33;97094.94;;;12.93;55.00
61324;BME280;47203;48.428;11.974;2023-04-19T05:21:41;97093.88;;;12.95;55.18
61324;BME280;47203;48.428;11.974;2023-04-19T05:23:50;97093.88;;;12.95;54.96
61324;BME280;47203;48.428;11.974;2023-04-19T05:25:58;97092.81;;;12.96;54.89
61324;BME280;47203;48.428;11.974;2023-04-19T05:28:05;97093.63;;;12.96;54.80
61324;BME280;47203;48.428;11.974;2023-04-19T05:30:22;97092.03;;;12.95;54.71
61324;BME280;47203;48.428;11.974;2023-04-19T05:32:29;97087.53;;;12.96;54.74
61324;BME280;47203;48.428;11.974;2023-04-19T05:34:37;97094.41;;;12.97;54.94
61324;BME280;47203;48.428;11.974;2023-04-19T05:36:46;97089.13;;;12.97;55.08
61324;BME280;47203;48.428;11.974;2023-04-19T05:40:34;97088.34;;;12.91;54.83
61324;BME280;47203;48.428;11.974;2023-04-19T05:42:41;97086.50;;;12.91;54.85
61324;BME280;47203;48.428;11.974;2023-04-19T05:44:46;97082.25;;;12.90;54.86
61324;BME280;47203;48.428;11.974;2023-04-19T05:46:51;97083.84;;;12.91;55.07
61324;BME280;47203;48.428;11.974;2023-04-19T05:49:25;97088.09;;;12.92;55.05
61324;BME280;47203;48.428;11.974;2023-04-19T05:51:49;97083.84;;;12.91;55.00
61324;BME280;47203;48.428;11.974;2023-04-19T05:54:08;97084.38;;;12.93;55.30
61324;BME280;47203;48.428;11.974;2023-04-19T05:56:21;97084.38;;;12.93;55.03
61324;BME280;47203;48.428;11.974;2023-04-19T05:58:26;97082.53;;;12.94;55.03
61324;BME280;47203;48.428;11.974;2023-04-19T06:00:30;97082.25;;;12.96;55.24
61324;BME280;47203;48.428;11.974;2023-04-19T06:02:43;97085.44;;;12.87;55.09
61324;BME280;47203;48.428;11.974;2023-04-19T06:04:49;97083.34;;;12.89;55.21
61324;BME280;47203;48.428;11.974;2023-04-19T06:06:55;97075.16;;;12.91;55.42
61324;BME280;47203;48.428;11.974;2023-04-19T06:09:00;97077.25;;;12.94;55.31
61324;BME280;47203;48.428;11.974;2023-04-19T06:11:05;97080.66;;;12.95;55.48
61324;BME280;47203;48.428;11.974;2023-04-19T06:13:30;97077.25;;;12.94;55.36
61324;BME280;47203;48.428;11.974;2023-04-19T06:15:35;97073.78;;;12.93;55.18
61324;BME280;47203;48.428;11.974;2023-04-19T06:17:40;97076.97;;;12.96;55.23
61324;BME280;47203;48.428;11.974;2023-04-19T06:19:45;97065.34;;;12.97;54.98
61324;BME280;47203;48.428;11.974;2023-04-19T06:21:50;97071.16;;;12.99;55.36
61324;BME280;47203;48.428;11.974;2023-04-19T06:23:55;97066.38;;;13.01;55.28
61324;BME280;47203;48.428;11.974;2023-04-19T06:26:00;97066.91;;;13.03;55.03
61324;BME280;47203;48.428;11.974;2023-04-19T06:28:05;97055.53;;;13.02;55.30
61324;BME280;47203;48.428;11.974;2023-04-19T06:30:13;97064.78;;;13.05;55.42
61324;BME280;47203;48.428;11.974;2023-04-19T06:32:20;97063.44;;;13.07;55.28
61324;BME280;47203;48.428;11.974;2023-04-19T06:34:26;97067.41;;;13.10;55.29
61324;BME280;47203;48.428;11.974;2023-04-19T06:36:31;97063.41;;;13.13;55.29
61324;BME280;47203;48.428;11.974;2023-04-19T06:38:37;97055.25;;;13.14;55.42
61324;BME280;47203;48.428;11.974;2023-04-19T06:40:42;97058.38;;;13.16;55.33
61324;BME280;47203;48.428;11.974;2023-04-19T06:42:47;97052.56;;;13.19;55.03
61324;BME280;47203;48.428;11.974;2023-04-19T06:44:53;97058.34;;;13.21;55.18
61324;BME280;47203;48.428;11.974;2023-04-19T06:47:00;97057.00;;;13.24;55.32
61324;BME280;47203;48.428;11.974;2023-04-19T06:49:06;97047.53;;;13.23;55.36
61324;BME280;47203;48.428;11.974;2023-04-19T06:51:11;97053.03;;;13.26;55.32
61324;BME280;47203;48.428;11.974;2023-04-19T06:53:16;97040.88;;;13.25;55.24
61324;BME280;47203;48.428;11.974;2023-04-19T06:55:21;97055.13;;;13.30;55.38
61324;BME280;47203;48.428;11.974;2023-04-19T06:57:27;97047.75;;;13.32;55.33
61324;BME280;47203;48.428;11.974;2023-04-19T06:59:33;97046.16;;;13.31;55.13
61324;BME280;47203;48.428;11.974;2023-04-19T07:01:40;97058.31;;;13.37;55.21
61324;BME280;47203;48.428;11.974;2023-04-19T07:03:48;97054.06;;;13.36;55.42
61324;BME280;47203;48.428;11.974;2023-04-19T07:05:56;97045.09;;;13.37;55.43
61324;BME280;47203;48.428;11.974;2023-04-19T07:08:02;97042.16;;;13.38;55.66
61324;BME280;47203;48.428;11.974;2023-04-19T07:10:08;97045.09;;;13.37;55.61
61324;BME280;47203;48.428;11.974;2023-04-19T07:12:13;97036.09;;;13.38;55.65
61324;BME280;47203;48.428;11.974;2023-04-19T07:14:19;97031.59;;;13.38;55.52
61324;BME280;47203;48.428;11.974;2023-04-19T07:16:25;97034.78;;;13.40;55.52
61324;BME280;47203;48.428;11.974;2023-04-19T07:18:30;97033.41;;;13.43;55.56
61324;BME280;47203;48.428;11.974;2023-04-19T07:20:38;97038.69;;;13.43;55.78
61324;BME280;47203;48.428;11.974;2023-04-19T07:22:45;97035.78;;;13.44;55.56
61324;BME280;47203;48.428;11.974;2023-04-19T07:24:51;97033.13;;;13.44;55.85
61324;BME280;47203;48.428;11.974;2023-04-19T07:26:56;97038.69;;;13.48;55.63
61324;BME280;47203;48.428;11.974;2023-04-19T07:29:01;97023.59;;;13.49;55.71
61324;BME280;47203;48.428;11.974;2023-04-19T07:31:07;97028.84;;;13.54;55.93
61324;BME280;47203;48.428;11.974;2023-04-19T07:33:12;97032.25;;;13.59;55.49
61324;BME280;47203;48.428;11.974;2023-04-19T07:35:16;97026.13;;;13.64;55.58
61324;BME280;47203;48.428;11.974;2023-04-19T07:37:24;97023.72;;;13.68;55.81
61324;BME280;47203;48.428;11.974;2023-04-19T07:39:29;97019.19;;;13.73;55.79
61324;BME280;47203;48.428;11.974;2023-04-19T07:41:34;97033.94;;;13.79;55.95
61324;BME280;47203;48.428;11.974;2023-04-19T07:43:39;97027.03;;;13.84;55.67
61324;BME280;47203;48.428;11.974;2023-04-19T07:45:45;97019.34;;;13.87;55.66
61324;BME280;47203;48.428;11.974;2023-04-19T07:47:49;97025.34;;;13.93;55.84
61324;BME280;47203;48.428;11.974;2023-04-19T07:49:55;97016.63;;;13.98;55.77
61324;BME280;47203;48.428;11.974;2023-04-19T07:52:00;97022.91;;;14.02;55.75
61324;BME280;47203;48.428;11.974;2023-04-19T07:54:07;97005.41;;;14.06;55.30
61324;BME280;47203;48.428;11.974;2023-04-19T07:56:12;97012.78;;;14.09;55.30
61324;BME280;47203;48.428;11.974;2023-04-19T07:58:17;97012.25;;;14.12;55.52
61324;BME280;47203;48.428;11.974;2023-04-19T08:00:22;97019.34;;;14.17;55.34
61324;BME280;47203;48.428;11.974;2023-04-19T08:02:27;97020.38;;;14.21;55.34
61324;BME280;47203;48.428;11.974;2023-04-19T08:04:32;97018.22;;;14.23;55.27
61324;BME280;47203;48.428;11.974;2023-04-19T08:06:38;97008.94;;;14.25;55.56
61324;BME280;47203;48.428;11.974;2023-04-19T08:08:43;97018.44;;;14.26;55.24
61324;BME280;47203;48.428;11.974;2023-04-19T08:10:54;97018.97;;;14.28;55.41
61324;BME280;47203;48.428;11.974;2023-04-19T08:13:02;97006.00;;;14.27;55.51
61324;BME280;47203;48.428;11.974;2023-04-19T08:15:08;97009.41;;;14.32;55.52
61324;BME280;47203;48.428;11.974;2023-04-19T08:17:33;97009.13;;;14.34;55.37
61324;BME280;47203;48.428;11.974;2023-04-19T08:19:43;97007.75;;;14.37;55.35
61324;BME280;47203;48.428;11.974;2023-04-19T08:21:48;97005.63;;;14.39;55.39
61324;BME280;47203;48.428;11.974;2023-04-19T08:23:53;97005.06;;;14.42;55.31
61324;BME280;47203;48.428;11.974;2023-04-19T08:26:00;97004.78;;;14.43;55.45
61324;BME280;47203;48.428;11.974;2023-04-19T08:28:05;96999.69;;;14.47;55.28
61324;BME280;47203;48.428;11.974;2023-04-19T08:30:10;97008.16;;;14.49;55.05
61324;BME280;47203;48.428;11.974;2023-04-19T08:32:15;96998.88;;;14.52;55.46
61324;BME280;47203;48.428;11.974;2023-04-19T08:34:20;97002.78;;;14.54;54.99
61324;BME280;47203;48.428;11.974;2023-04-19T08:36:25;97001.44;;;14.57;55.12
61324;BME280;47203;48.428;11.974;2023-04-19T08:38:44;96999.31;;;14.59;55.19
61324;BME280;47203;48.428;11.974;2023-04-19T08:41:05;96996.38;;;14.60;55.45
61324;BME280;47203;48.428;11.974;2023-04-19T08:43:10;97001.13;;;14.63;55.43
61324;BME280;47203;48.428;11.974;2023-04-19T08:45:15;96998.22;;;14.65;55.04
61324;BME280;47203;48.428;11.974;2023-04-19T08:47:28;96997.16;;;14.61;55.58
61324;BME280;47203;48.428;11.974;2023-04-19T08:49:35;97000.03;;;14.64;55.14
61324;BME280;47203;48.428;11.974;2023-04-19T08:51:44;96991.56;;;14.68;55.06
61324;BME280;47203;48.428;11.974;2023-04-19T08:53:50;96991.78;;;14.71;55.13
61324;BME280;47203;48.428;11.974;2023-04-19T08:55:57;96996.22;;;14.76;55.04
61324;BME280;47203;48.428;11.974;2023-04-19T08:58:18;96990.34;;;14.79;55.50
61324;BME280;47203;48.428;11.974;2023-04-19T09:00:38;96988.69;;;14.83;55.21
61324;BME280;47203;48.428;11.974;2023-04-19T09:02:44;96984.69;;;14.86;55.14
61324;BME280;47203;48.428;11.974;2023-04-19T09:04:50;96981.47;;;14.89;54.77
61324;BME280;47203;48.428;11.974;2023-04-19T09:06:56;96979.06;;;14.92;54.69
61324;BME280;47203;48.428;11.974;2023-04-19T09:09:13;96974.25;;;14.94;54.71
61324;BME280;47203;48.428;11.974;2023-04-19T09:11:21;96978.97;;;14.97;54.79
61324;BME280;47203;48.428;11.974;2023-04-19T09:13:42;96969.97;;;14.98;54.63
61324;BME280;47203;48.428;11.974;2023-04-19T09:15:47;96972.81;;;15.02;54.72
61324;BME280;47203;48.428;11.974;2023-04-19T09:18:03;96968.03;;;15.04;54.12
61324;BME280;47203;48.428;11.974;2023-04-19T09:20:10;96965.88;;;15.06;54.35
61324;BME280;47203;48.428;11.974;2023-04-19T09:22:15;96968.22;;;15.08;54.31
61324;BME280;47203;48.428;11.974;2023-04-19T09:24:36;96963.72;;;15.08;53.85
61324;BME280;47203;48.428;11.974;2023-04-19T09:26:53;96956.56;;;15.09;53.83
61324;BME280;47203;48.428;11.974;2023-04-19T09:29:03;96963.16;;;15.11;54.06
61324;BME280;47203;48.428;11.974;2023-04-19T09:31:10;96957.56;;;15.13;54.02
61324;BME280;47203;48.428;11.974;2023-04-19T09:33:37;96955.69;;;15.13;53.96
61324;BME280;47203;48.428;11.974;2023-04-19T09:35:43;96951.97;;;15.14;53.91
61324;BME280;47203;48.428;11.974;2023-04-19T09:37:58;96950.88;;;15.15;53.72
61324;BME280;47203;48.428;11.974;2023-04-19T09:40:23;96951.69;;;15.16;53.88
61324;BME280;47203;48.428;11.974;2023-04-19T09:42:43;96949.81;;;15.16;53.74
61324;BME280;47203;48.428;11.974;2023-04-19T09:44:58;96936.56;;;15.16;53.65
61324;BME280;47203;48.428;11.974;2023-04-19T09:47:23;96944.81;;;15.15;54.05
61324;BME280;47203;48.428;11.974;2023-04-19T09:49:30;96941.38;;;15.14;53.78
61324;BME280;47203;48.428;11.974;2023-04-19T09:51:50;96943.50;;;15.12;53.84
61324;BME280;47203;48.428;11.974;2023-04-19T09:53:55;96938.50;;;15.11;53.89
61324;BME280;47203;48.428;11.974;2023-04-19T09:56:00;96932.72;;;15.09;54.09
61324;BME280;47203;48.428;11.974;2023-04-19T09:58:07;96943.81;;;15.11;53.96
61324;BME280;47203;48.428;11.974;2023-04-19T10:00:15;96927.91;;;15.11;54.16
61324;BME280;47203;48.428;11.974;2023-04-19T10:02:21;96933.47;;;15.09;54.04
61324;BME280;47203;48.428;11.974;2023-04-19T10:04:27;96928.19;;;15.09;54.30
61324;BME280;47203;48.428;11.974;2023-04-19T10:06:53;96933.78;;;15.08;54.13
61324;BME280;47203;48.428;11.974;2023-04-19T10:09:19;96927.19;;;15.05;54.39
61324;BME280;47203;48.428;11.974;2023-04-19T10:11:25;96922.69;;;15.06;54.13
61324;BME280;47203;48.428;11.974;2023-04-19T10:13:31;96922.69;;;15.06;54.32
61324;BME280;47203;48.428;11.974;2023-04-19T10:15:40;96920.31;;;15.04;54.58
61324;BME280;47203;48.428;11.974;2023-04-19T10:17:58;96919.81;;;15.02;54.60
61324;BME280;47203;48.428;11.974;2023-04-19T10:20:06;96924.31;;;15.01;54.58
61324;BME280;47203;48.428;11.974;2023-04-19T10:22:13;96920.91;;;15.01;54.50
61324;BME280;47203;48.428;11.974;2023-04-19T10:24:18;96915.84;;;14.99;54.46
61324;BME280;47203;48.428;11.974;2023-04-19T10:26:24;96915.16;;;14.94;54.34
61324;BME280;47203;48.428;11.974;2023-04-19T10:28:29;96923.41;;;14.92;54.49
61324;BME280;47203;48.428;11.974;2023-04-19T10:30:34;96927.41;;;14.90;54.51
61324;BME280;47203;48.428;11.974;2023-04-19T10:32:45;96927.47;;;14.84;54.59
61324;BME280;47203;48.428;11.974;2023-04-19T10:34:50;96929.63;;;14.82;54.43
61324;BME280;47203;48.428;11.974;2023-04-19T10:36:56;96927.03;;;14.77;54.32
61324;BME280;47203;48.428;11.974;2023-04-19T10:39:01;96924.66;;;14.76;54.32
61324;BME280;47203;48.428;11.974;2023-04-19T10:41:06;96922.09;;;14.71;54.67
61324;BME280;47203;48.428;11.974;2023-04-19T10:43:19;96916.84;;;14.65;54.46
61324;BME280;47203;48.428;11.974;2023-04-19T10:45:31;96916.66;;;14.62;54.62
61324;BME280;47203;48.428;11.974;2023-04-19T10:47:43;96914.03;;;14.57;54.57
61324;BME280;47203;48.428;11.974;2023-04-19T10:49:49;96914.59;;;14.54;54.38
61324;BME280;47203;48.428;11.974;2023-04-19T10:51:54;96908.56;;;14.48;54.58
61324;BME280;47203;48.428;11.974;2023-04-19T10:54:02;96905.72;;;14.44;54.16
61324;BME280;47203;48.428;11.974;2023-04-19T10:56:07;96903.13;;;14.39;54.40
61324;BME280;47203;48.428;11.974;2023-04-19T10:58:12;96897.63;;;14.36;54.44
61324;BME280;47203;48.428;11.974;2023-04-19T11:00:20;96906.91;;;14.33;54.52
61324;BME280;47203;48.428;11.974;2023-04-19T11:02:27;96894.75;;;14.32;54.40
61324;BME280;47203;48.428;11.974;2023-04-19T11:07:11;96891.66;;;14.25;54.73
61324;BME280;47203;48.428;11.974;2023-04-19T11:09:21;96892.22;;;14.22;55.11
61324;BME280;47203;48.428;11.974;2023-04-19T11:11:27;96892.22;;;14.22;55.08